createdAt,value
2022-10-04T00:02:18.640Z,11.73
2022-10-04T00:05:22.262Z,11.73
2022-10-04T00:08:23.596Z,11.72
2022-10-04T00:11:28.060Z,11.70
2022-10-04T00:14:35.063Z,11.70
2022-10-04T00:17:36.630Z,11.70
2022-10-04T00:20:49.989Z,11.69
2022-10-04T00:24:08.548Z,11.69
2022-10-04T00:27:26.462Z,11.69
2022-10-04T00:30:35.976Z,11.69
2022-10-04T00:33:52.648Z,11.70
2022-10-04T00:36:54.381Z,11.70
2022-10-04T00:39:55.765Z,11.71
2022-10-04T00:43:29.575Z,11.71
2022-10-04T00:46:31.866Z,11.71
2022-10-04T00:49:38.715Z,11.72
2022-10-04T00:52:54.349Z,11.71
2022-10-04T00:55:58.677Z,11.71
2022-10-04T00:59:26.268Z,11.70
2022-10-04T01:02:36.579Z,11.70
2022-10-04T01:05:43.937Z,11.70
2022-10-04T01:08:50.524Z,11.70
2022-10-04T01:12:13.595Z,11.70
2022-10-04T01:15:23.998Z,11.71
2022-10-04T01:18:25.345Z,11.70
2022-10-04T01:21:30.254Z,11.69
2022-10-04T01:24:35.958Z,11.69
2022-10-04T01:27:42.394Z,11.69
2022-10-04T01:30:44.201Z,11.69
2022-10-04T01:33:45.911Z,11.70
2022-10-04T01:36:48.452Z,11.69
2022-10-04T01:39:49.863Z,11.69
2022-10-04T01:42:54.434Z,11.69
2022-10-04T01:46:01.618Z,11.69
2022-10-04T01:49:06.079Z,11.68
2022-10-04T01:52:14.338Z,11.69
2022-10-04T01:55:18.965Z,11.68
2022-10-04T01:58:25.531Z,11.68
2022-10-04T02:01:30.968Z,11.68
2022-10-04T02:04:35.080Z,11.66
2022-10-04T02:07:38.220Z,11.66
2022-10-04T02:10:43.264Z,11.64
2022-10-04T02:13:46.593Z,11.62
2022-10-04T02:16:53.286Z,11.61
2022-10-04T02:19:54.771Z,11.60
2022-10-04T02:22:58.800Z,11.59
2022-10-04T02:26:04.215Z,11.58
2022-10-04T02:29:05.895Z,11.58
2022-10-04T02:32:26.837Z,11.57
2022-10-04T02:35:30.267Z,11.58
2022-10-04T02:38:35.066Z,11.58
2022-10-04T02:41:36.529Z,11.57
2022-10-04T02:44:43.813Z,11.58
2022-10-04T02:47:49.411Z,11.57
2022-10-04T02:50:53.407Z,11.57
2022-10-04T02:54:02.275Z,11.58
2022-10-04T02:57:05.118Z,11.59
2022-10-04T03:00:12.645Z,11.58
2022-10-04T03:03:37.396Z,11.60
2022-10-04T03:06:38.867Z,11.60
2022-10-04T03:09:40.440Z,11.61
2022-10-04T03:12:42.303Z,11.59
2022-10-04T03:15:43.959Z,11.59
2022-10-04T03:18:46.844Z,11.59
2022-10-04T03:21:50.383Z,11.58
2022-10-04T03:24:53.807Z,11.57
2022-10-04T03:27:58.880Z,11.58
2022-10-04T03:31:00.495Z,11.58
2022-10-04T03:34:02.279Z,11.58
2022-10-04T03:37:06.739Z,11.57
2022-10-04T03:40:08.991Z,11.57
2022-10-04T03:43:13.982Z,11.56
2022-10-04T03:46:17.063Z,11.55
2022-10-04T03:49:25.553Z,11.55
2022-10-04T03:52:30.302Z,11.55
2022-10-04T03:55:33.605Z,11.53
2022-10-04T03:58:35.264Z,11.51
2022-10-04T04:01:39.528Z,11.50
2022-10-04T04:04:45.625Z,11.50
2022-10-04T04:07:51.308Z,11.49
2022-10-04T04:10:54.981Z,11.49
2022-10-04T04:14:12.051Z,11.48
2022-10-04T04:17:25.596Z,11.47
2022-10-04T04:20:35.006Z,11.46
2022-10-04T04:23:41.244Z,11.43
2022-10-04T04:26:47.635Z,11.42
2022-10-04T04:29:52.508Z,11.40
2022-10-04T04:32:55.980Z,11.37
2022-10-04T04:36:07.340Z,11.36
2022-10-04T04:39:33.674Z,11.34
2022-10-04T04:42:35.397Z,11.31
2022-10-04T04:45:36.865Z,11.30
2022-10-04T04:48:38.500Z,11.30
2022-10-04T04:51:41.122Z,11.30
2022-10-04T04:54:46.420Z,11.29
2022-10-04T04:57:49.113Z,11.29
2022-10-04T05:00:56.460Z,11.29
2022-10-04T05:04:01.601Z,11.29
2022-10-04T05:07:04.768Z,11.28
2022-10-04T05:10:26.481Z,11.28
2022-10-04T05:13:46.779Z,11.27
2022-10-04T05:16:49.478Z,11.27
2022-10-04T05:19:52.122Z,11.27
2022-10-04T05:22:54.501Z,11.26
2022-10-04T05:25:59.602Z,11.27
2022-10-04T05:29:06.677Z,11.25
2022-10-04T05:32:22.519Z,11.25
2022-10-04T05:35:25.859Z,11.24
2022-10-04T05:38:27.582Z,11.23
2022-10-04T05:41:53.599Z,11.23
2022-10-04T05:44:59.365Z,11.23
2022-10-04T05:48:01.833Z,11.22
2022-10-04T05:51:12.471Z,11.24
2022-10-04T05:54:18.681Z,11.25
2022-10-04T05:57:29.154Z,11.28
2022-10-04T06:00:38.365Z,11.29
2022-10-04T06:03:48.703Z,11.32
2022-10-04T06:06:55.215Z,11.35
2022-10-04T06:10:02.488Z,11.38
2022-10-04T06:13:20.233Z,11.39
2022-10-04T06:16:24.495Z,11.41
2022-10-04T06:19:44.550Z,11.43
2022-10-04T06:23:00.845Z,11.44
2022-10-04T06:26:05.216Z,11.45
2022-10-04T06:29:10.534Z,11.47
2022-10-04T06:32:30.330Z,11.49
2022-10-04T06:36:04.572Z,11.51
2022-10-04T06:39:08.528Z,11.53
2022-10-04T06:42:16.610Z,11.54
2022-10-04T06:45:20.722Z,11.57
2022-10-04T06:48:22.111Z,11.57
2022-10-04T06:51:26.504Z,11.60
2022-10-04T06:54:31.393Z,11.63
2022-10-04T06:57:51.267Z,11.67
2022-10-04T07:01:04.752Z,11.69
2022-10-04T07:04:44.996Z,11.71
2022-10-04T07:08:05.955Z,11.76
2022-10-04T07:11:13.109Z,11.77
2022-10-04T07:14:14.561Z,11.79
2022-10-04T07:17:34.983Z,11.81
2022-10-04T07:20:40.648Z,11.82
2022-10-04T07:23:45.887Z,11.83
2022-10-04T07:26:53.289Z,11.84
2022-10-04T07:29:55.729Z,11.84
2022-10-04T07:32:57.743Z,11.83
2022-10-04T07:36:11.721Z,11.83
2022-10-04T07:39:31.536Z,11.84
2022-10-04T07:42:40.872Z,11.83
2022-10-04T07:45:42.426Z,11.84
2022-10-04T07:48:44.026Z,11.85
2022-10-04T07:52:25.174Z,11.89
2022-10-04T07:55:29.242Z,11.94
2022-10-04T07:58:45.901Z,12.00
2022-10-04T08:02:03.264Z,12.10
2022-10-04T08:05:24.529Z,12.17
2022-10-04T08:08:37.291Z,12.26
2022-10-04T08:11:49.048Z,12.31
2022-10-04T08:15:23.188Z,12.35
2022-10-04T08:18:33.780Z,12.40
2022-10-04T08:21:43.075Z,12.44
2022-10-04T08:28:42.378Z,12.44
2022-10-04T08:31:50.858Z,12.43
2022-10-04T08:34:52.730Z,12.45
2022-10-04T08:38:04.878Z,12.46
2022-10-04T08:41:45.589Z,12.44
2022-10-04T08:45:05.798Z,12.45
2022-10-04T08:48:24.686Z,12.44
2022-10-04T08:51:44.037Z,12.43
2022-10-04T08:54:53.950Z,12.41
2022-10-04T08:58:11.747Z,12.40
2022-10-04T09:01:19.175Z,12.43
2022-10-04T09:04:39.791Z,12.47
2022-10-04T09:07:59.736Z,12.52
2022-10-04T09:11:19.748Z,12.63
2022-10-04T09:14:35.833Z,12.69
2022-10-04T09:17:50.372Z,12.72
2022-10-04T09:21:03.846Z,12.78
2022-10-04T09:24:16.022Z,12.86
2022-10-04T09:27:54.549Z,12.98
2022-10-04T09:31:15.476Z,13.07
2022-10-04T09:34:41.296Z,13.11
2022-10-04T09:38:02.303Z,13.18
2022-10-04T09:41:03.737Z,13.23
2022-10-04T09:44:21.386Z,13.22
2022-10-04T09:47:45.654Z,13.24
2022-10-04T09:50:53.606Z,13.30
2022-10-04T09:54:15.066Z,13.35
2022-10-04T09:57:21.539Z,13.35
2022-10-04T10:00:25.624Z,13.37
2022-10-04T10:03:45.573Z,13.41
2022-10-04T10:07:05.802Z,13.44
2022-10-04T10:10:29.143Z,13.45
2022-10-04T10:13:39.720Z,13.56
2022-10-04T10:17:00.343Z,13.74
2022-10-04T10:20:26.491Z,13.90
2022-10-04T10:23:29.850Z,13.94
2022-10-04T10:26:38.511Z,13.89
2022-10-04T10:30:11.901Z,13.82
2022-10-04T10:33:32.027Z,13.74
2022-10-04T10:36:45.954Z,13.67
2022-10-04T10:39:59.420Z,13.62
2022-10-04T10:43:06.577Z,13.84
2022-10-04T10:46:18.475Z,14.11
2022-10-04T10:49:52.853Z,14.35
2022-10-04T10:53:16.471Z,14.43
2022-10-04T10:56:19.975Z,14.57
2022-10-04T10:59:55.527Z,14.64
2022-10-04T11:03:21.869Z,14.81
2022-10-04T11:06:46.514Z,14.89
2022-10-04T11:10:06.054Z,14.96
2022-10-04T11:13:18.073Z,15.00
2022-10-04T11:16:49.161Z,14.99
2022-10-04T11:20:10.597Z,14.97
2022-10-04T11:23:30.787Z,14.95
2022-10-04T11:26:45.969Z,14.90
2022-10-04T11:29:58.058Z,14.87
2022-10-04T11:33:16.731Z,14.78
2022-10-04T11:36:25.345Z,14.67
2022-10-04T11:39:35.692Z,14.58
2022-10-04T11:43:03.898Z,14.52
2022-10-04T11:46:23.981Z,14.49
2022-10-04T11:49:28.483Z,14.45
2022-10-04T11:52:46.520Z,14.41
2022-10-04T11:56:35.113Z,14.36
2022-10-04T11:59:47.033Z,14.38
2022-10-04T12:03:10.276Z,14.46
2022-10-04T12:06:33.191Z,14.44
2022-10-04T12:10:00.906Z,14.41
2022-10-04T12:13:19.401Z,14.51
2022-10-04T12:16:32.809Z,14.68
2022-10-04T12:19:43.129Z,14.75
2022-10-04T12:22:56.759Z,14.79
2022-10-04T12:26:10.346Z,14.76
2022-10-04T12:29:30.406Z,14.73
2022-10-04T12:32:36.195Z,14.68
2022-10-04T12:35:43.558Z,14.60
2022-10-04T12:38:51.094Z,14.51
2022-10-04T12:42:10.583Z,14.39
2022-10-04T12:45:12.018Z,14.31
2022-10-04T12:49:00.482Z,14.28
2022-10-04T12:52:39.804Z,14.26
2022-10-04T12:55:53.891Z,14.22
2022-10-04T12:59:24.758Z,14.18
2022-10-04T13:02:35.813Z,14.16
2022-10-04T13:05:56.394Z,14.15
2022-10-04T13:09:41.779Z,14.10
2022-10-04T13:13:11.263Z,14.06
2022-10-04T13:20:15.690Z,14.01
2022-10-04T13:23:39.343Z,14.02
2022-10-04T13:26:56.087Z,14.02
2022-10-04T13:30:01.701Z,14.02
2022-10-04T13:33:09.411Z,14.02
2022-10-04T13:36:10.845Z,13.98
2022-10-04T13:39:15.263Z,13.95
2022-10-04T13:42:24.630Z,13.90
2022-10-04T13:45:35.855Z,13.86
2022-10-04T13:48:45.331Z,13.82
2022-10-04T13:52:18.765Z,13.79
2022-10-04T13:55:44.758Z,13.80
2022-10-04T13:58:48.097Z,13.84
2022-10-04T14:01:55.294Z,13.90
2022-10-04T14:04:56.816Z,13.97
2022-10-04T14:08:01.260Z,14.02
2022-10-04T14:11:23.140Z,14.08
2022-10-04T14:14:46.876Z,14.12
2022-10-04T14:17:55.181Z,14.12
2022-10-04T14:21:14.166Z,14.11
2022-10-04T14:24:36.410Z,14.07
2022-10-04T14:28:09.525Z,14.04
2022-10-04T14:31:10.975Z,14.00
2022-10-04T14:34:21.548Z,13.95
2022-10-04T14:37:47.423Z,13.90
2022-10-04T14:41:15.231Z,13.85
2022-10-04T14:44:25.510Z,13.80
2022-10-04T14:47:47.191Z,13.75
2022-10-04T14:51:12.270Z,13.71
2022-10-04T14:54:32.002Z,13.67
2022-10-04T14:57:42.951Z,13.63
2022-10-04T15:01:00.894Z,13.59
2022-10-04T15:04:21.367Z,13.56
2022-10-04T15:07:29.547Z,13.53
2022-10-04T15:14:38.575Z,13.48
2022-10-04T15:17:52.580Z,13.46
2022-10-04T15:20:58.209Z,13.42
2022-10-04T15:24:12.460Z,13.39
2022-10-04T15:27:26.073Z,13.36
2022-10-04T15:30:52.810Z,13.34
2022-10-04T15:34:19.643Z,13.29
2022-10-04T15:37:33.124Z,13.25
2022-10-04T15:40:40.584Z,13.20
2022-10-04T15:44:00.814Z,13.19
2022-10-04T15:47:14.881Z,13.15
2022-10-04T15:50:22.912Z,13.13
2022-10-04T15:53:24.766Z,13.10
2022-10-04T15:56:35.266Z,13.07
2022-10-04T16:00:03.411Z,13.04
2022-10-04T16:03:16.558Z,13.02
2022-10-04T16:06:22.950Z,12.99
2022-10-04T16:10:02.891Z,12.94
2022-10-04T16:13:19.649Z,12.92
2022-10-04T16:16:31.125Z,12.87
2022-10-04T16:19:45.605Z,12.84
2022-10-04T16:23:07.089Z,12.80
2022-10-04T16:26:10.469Z,12.77
2022-10-04T16:29:37.983Z,12.74
2022-10-04T16:32:59.313Z,12.70
2022-10-04T16:36:08.141Z,12.66
2022-10-04T16:39:29.129Z,12.62
2022-10-04T16:42:49.004Z,12.60
2022-10-04T16:46:09.381Z,12.58
2022-10-04T16:49:16.679Z,12.56
2022-10-04T16:52:31.670Z,12.55
2022-10-04T16:55:57.050Z,12.54
2022-10-04T16:59:00.051Z,12.53
2022-10-04T17:02:10.963Z,12.54
2022-10-04T17:05:17.736Z,12.53
2022-10-04T17:08:21.646Z,12.53
2022-10-04T17:11:37.513Z,12.52
2022-10-04T17:14:39.000Z,12.51
2022-10-04T17:17:43.481Z,12.49
2022-10-04T17:21:05.370Z,12.47
2022-10-04T17:24:22.098Z,12.44
2022-10-04T17:27:38.831Z,12.43
2022-10-04T17:30:53.749Z,12.39
2022-10-04T17:33:58.811Z,12.37
2022-10-04T17:37:10.604Z,12.35
2022-10-04T17:40:12.037Z,12.33
2022-10-04T17:43:14.822Z,12.31
2022-10-04T17:46:23.220Z,12.28
2022-10-04T17:49:58.187Z,12.26
2022-10-04T17:53:35.071Z,12.24
2022-10-04T17:56:42.028Z,12.21
2022-10-04T17:59:46.035Z,12.19
2022-10-04T18:03:06.440Z,12.17
2022-10-04T18:06:18.683Z,12.15
2022-10-04T18:09:32.365Z,12.13
2022-10-04T18:12:38.274Z,12.12
2022-10-04T18:15:59.286Z,12.09
2022-10-04T18:19:21.220Z,12.06
2022-10-04T18:22:25.976Z,12.03
2022-10-04T18:25:29.604Z,12.01
2022-10-04T18:28:34.386Z,11.99
2022-10-04T18:31:39.571Z,11.97
2022-10-04T18:34:41.355Z,11.95
2022-10-04T18:37:42.894Z,11.94
2022-10-04T18:40:54.995Z,11.91
2022-10-04T18:43:59.481Z,11.88
2022-10-04T18:47:01.670Z,11.86
2022-10-04T18:50:21.616Z,11.84
2022-10-04T18:53:40.593Z,11.83
2022-10-04T18:56:52.298Z,11.80
2022-10-04T19:00:22.162Z,11.79
2022-10-04T19:03:29.562Z,11.76
2022-10-04T19:06:35.242Z,11.74
2022-10-04T19:09:40.805Z,11.70
2022-10-04T19:13:00.637Z,11.68
2022-10-04T19:16:09.944Z,11.65
2022-10-04T19:19:22.906Z,11.61
2022-10-04T19:22:42.718Z,11.59
2022-10-04T19:26:17.513Z,11.57
2022-10-04T19:29:19.771Z,11.55
2022-10-04T19:32:47.328Z,11.55
2022-10-04T19:36:06.849Z,11.54
2022-10-04T19:39:12.351Z,11.52
2022-10-04T19:42:24.859Z,11.51
2022-10-04T19:45:39.380Z,11.50
2022-10-04T19:48:49.503Z,11.51
2022-10-04T19:51:58.227Z,11.52
2022-10-04T19:55:07.690Z,11.52
2022-10-04T19:58:31.356Z,11.52
2022-10-04T20:01:35.855Z,11.51
2022-10-04T20:04:38.812Z,11.50
2022-10-04T20:07:40.935Z,11.50
2022-10-04T20:10:45.779Z,11.50
2022-10-04T20:14:10.920Z,11.49
2022-10-04T20:17:29.500Z,11.48
2022-10-04T20:20:41.407Z,11.46
2022-10-04T20:23:47.320Z,11.43
2022-10-04T20:26:53.849Z,11.41
2022-10-04T20:30:02.618Z,11.38
2022-10-04T20:33:07.975Z,11.35
2022-10-04T20:36:11.694Z,11.32
2022-10-04T20:39:44.680Z,11.29
2022-10-04T20:43:10.916Z,11.27
2022-10-04T20:46:23.512Z,11.26
2022-10-04T20:49:26.859Z,11.24
2022-10-04T20:52:30.110Z,11.22
2022-10-04T20:55:33.539Z,11.20
2022-10-04T20:58:36.029Z,11.19
2022-10-04T21:01:43.563Z,11.17
2022-10-04T21:04:51.557Z,11.16
2022-10-04T21:08:11.561Z,11.14
2022-10-04T21:11:20.054Z,11.12
2022-10-04T21:14:22.005Z,11.11
2022-10-04T21:17:29.287Z,11.10
2022-10-04T21:20:52.170Z,11.08
2022-10-04T21:23:53.895Z,11.06
2022-10-04T21:26:56.371Z,11.05
2022-10-04T21:29:58.533Z,11.03
2022-10-04T21:33:03.305Z,11.02
2022-10-04T21:36:08.510Z,11.00
2022-10-04T21:39:12.776Z,10.98
2022-10-04T21:42:17.099Z,10.97
2022-10-04T21:45:33.028Z,10.94
2022-10-04T21:48:34.531Z,10.93
2022-10-04T21:51:36.738Z,10.92
2022-10-04T21:54:38.183Z,10.90
2022-10-04T21:57:39.741Z,10.88
2022-10-04T22:00:41.405Z,10.86
2022-10-04T22:03:42.860Z,10.85
2022-10-04T22:06:47.982Z,10.82
2022-10-04T22:09:52.746Z,10.81
2022-10-04T22:13:01.701Z,10.80
2022-10-04T22:16:03.653Z,10.78
2022-10-04T22:19:05.274Z,10.77
2022-10-04T22:22:11.605Z,10.76
2022-10-04T22:25:14.574Z,10.75
2022-10-04T22:28:22.121Z,10.75
2022-10-04T22:31:28.163Z,10.76
2022-10-04T22:34:30.224Z,10.76
2022-10-04T22:37:32.666Z,10.75
2022-10-04T22:40:34.077Z,10.76
2022-10-04T22:43:35.697Z,10.75
2022-10-04T22:46:39.314Z,10.75
2022-10-04T22:49:42.354Z,10.73
2022-10-04T22:52:43.769Z,10.72
2022-10-04T22:55:46.562Z,10.71
2022-10-04T22:58:47.923Z,10.68
2022-10-04T23:01:49.280Z,10.67
2022-10-04T23:04:51.908Z,10.66
2022-10-04T23:07:53.393Z,10.64
2022-10-04T23:10:55.678Z,10.62
2022-10-04T23:13:57.781Z,10.61
2022-10-04T23:16:59.245Z,10.59
2022-10-04T23:20:03.182Z,10.57
2022-10-04T23:23:08.183Z,10.56
2022-10-04T23:26:14.091Z,10.54
2022-10-04T23:29:22.489Z,10.52
2022-10-04T23:32:25.097Z,10.50
2022-10-04T23:35:33.383Z,10.48
2022-10-04T23:38:34.902Z,10.47
2022-10-04T23:41:36.318Z,10.44
2022-10-04T23:44:37.887Z,10.42
2022-10-04T23:47:39.343Z,10.40
2022-10-04T23:50:41.140Z,10.38
2022-10-04T23:53:44.101Z,10.37
2022-10-04T23:56:46.453Z,10.35
2022-10-04T23:59:48.817Z,10.37
